Time;durP1;ratioP1;P1;durP2;ratioP2;P2;SDS_P1;SDS_P2;PMS_P1;PMS_P2;Temp;Humidity;BMP_temperature;BMP_pressure;BME280_temperature;BME280_humidity;BME280_pressure;Samples;Min_cycle;Max_cycle;Signal;HPM_P1;HPM_P2
2020/12/27 00:00:13;;;;;;;2.28;1.60;;;3.80;99.90;;;4.00;79.78;99753.53;4977312;28;20034;-87
2020/12/27 00:02:39;;;;;;;4.75;2.05;;;3.80;99.90;;;4.11;79.70;99758.31;4979399;28;20042;-83
2020/12/27 00:05:08;;;;;;;3.83;1.92;;;3.80;99.90;;;3.98;79.57;99745.56;4979850;28;20039;-86
2020/12/27 00:07:34;;;;;;;1.90;1.60;;;3.80;99.90;;;4.09;79.32;99730.22;4978770;28;20042;-86
2020/12/27 00:10:03;;;;;;;2.45;1.73;;;3.80;99.90;;;4.08;79.91;99723.06;4963103;28;20027;-84
2020/12/27 00:12:31;;;;;;;3.00;1.90;;;3.80;99.90;;;4.15;79.10;99714.25;4979599;28;20026;-85
2020/12/27 00:14:58;;;;;;;2.10;1.58;;;3.90;99.90;;;4.05;79.22;99704.41;4980647;28;20022;-84
2020/12/27 00:17:25;;;;;;;3.85;1.85;;;3.90;99.90;;;4.10;79.47;99709.75;4981668;28;20047;-86
2020/12/27 00:19:51;;;;;;;3.05;1.60;;;3.90;99.90;;;4.14;79.04;99696.06;4981543;28;20026;-84
2020/12/27 00:22:18;;;;;;;4.38;1.88;;;3.90;99.90;;;4.07;78.95;99690.25;4981646;28;20027;-85
2020/12/27 00:24:47;;;;;;;2.20;1.80;;;3.90;99.90;;;4.06;79.64;99669.28;4981133;28;20394;-88
2020/12/27 00:27:15;;;;;;;4.05;1.60;;;3.90;99.90;;;3.99;79.82;99680.06;4963790;28;20037;-83
2020/12/27 00:29:42;;;;;;;3.67;1.35;;;3.90;99.90;;;4.01;79.25;99684.16;4979715;28;20031;-85
2020/12/27 00:32:08;;;;;;;3.70;1.95;;;3.80;99.90;;;4.01;79.64;99664.81;4979892;28;20033;-85
2020/12/27 00:34:34;;;;;;;2.20;1.63;;;3.80;99.90;;;4.06;79.70;99663.78;4963755;28;20046;-84
2020/12/27 00:37:00;;;;;;;2.92;1.80;;;3.80;99.90;;;4.01;79.59;99648.22;4980231;28;20027;-85
2020/12/27 00:39:29;;;;;;;2.92;1.30;;;3.80;99.90;;;4.07;79.71;99641.34;4980227;28;20475;-83
2020/12/27 00:42:00;;;;;;;1.88;1.50;;;3.80;99.90;;;4.20;78.78;99629.19;4964392;28;20394;-85
2020/12/27 00:44:27;;;;;;;1.80;1.50;;;3.90;99.90;;;4.07;79.39;99629.47;4963289;28;20027;-86
2020/12/27 00:46:55;;;;;;;2.45;1.50;;;3.90;99.90;;;4.14;79.42;99624.22;4978936;28;20034;-86
2020/12/27 00:49:22;;;;;;;2.80;1.60;;;3.90;99.90;;;4.17;78.89;99627.06;4962698;28;20431;-84
2020/12/27 00:51:51;;;;;;;3.35;1.75;;;3.90;99.90;;;4.21;79.00;99596.81;4979236;28;20478;-86
2020/12/27 00:54:18;;;;;;;1.77;1.40;;;3.90;99.90;;;4.19;79.04;99599.13;4963229;28;20027;-83
2020/12/27 00:56:50;;;;;;;3.13;1.63;;;3.90;99.90;;;4.21;78.78;99578.28;4981819;28;20050;-87
2020/12/27 00:59:19;;;;;;;3.78;1.52;;;3.90;99.90;;;4.17;78.68;99569.03;4980928;28;20038;-87
2020/12/27 01:01:45;;;;;;;3.55;1.40;;;3.90;99.90;;;4.11;78.81;99577.91;4980063;28;20054;-86
2020/12/27 01:04:12;;;;;;;2.67;1.70;;;3.90;99.90;;;4.15;78.61;99565.81;4963513;28;20474;-85
2020/12/27 01:06:39;;;;;;;2.55;1.35;;;3.90;99.90;;;4.17;78.80;99565.50;4979942;28;20070;-85
2020/12/27 01:09:06;;;;;;;3.35;1.60;;;3.90;99.90;;;4.19;78.55;99549.38;4963906;28;20575;-86
2020/12/27 01:11:32;;;;;;;2.15;1.40;;;4.00;99.90;;;4.25;77.81;99551.56;4980232;28;20139;-85
2020/12/27 01:13:58;;;;;;;1.48;0.98;;;4.00;99.90;;;4.22;77.90;99535.69;4979692;28;20034;-84
2020/12/27 01:16:24;;;;;;;2.35;1.33;;;4.00;99.90;;;4.29;77.62;99546.16;4979646;28;20023;-86
2020/12/27 01:18:51;;;;;;;2.75;1.33;;;4.00;99.90;;;4.23;77.57;99531.78;4981076;28;20047;-87
2020/12/27 01:21:35;;;;;;;1.70;1.15;;;4.00;99.90;;;4.34;77.71;99528.53;4985094;28;20041;-84
2020/12/27 01:24:01;;;;;;;1.52;0.93;;;4.10;99.90;;;4.40;77.64;99521.66;4991531;28;20015;-81
2020/12/27 01:26:34;;;;;;;1.52;1.30;;;4.00;99.90;;;4.39;77.13;99520.03;4975726;28;20097;-86
2020/12/27 01:29:02;;;;;;;2.25;1.20;;;4.10;99.90;;;4.30;77.52;99509.09;4977678;28;20026;-85
2020/12/27 01:31:28;;;;;;;2.33;1.20;;;4.10;99.90;;;4.30;77.39;99511.06;4979315;28;20035;-85
2020/12/27 01:33:55;;;;;;;4.00;1.00;;;4.10;99.90;;;4.42;76.62;99506.34;4961698;28;20023;-84
2020/12/27 01:36:34;;;;;;;1.40;1.20;;;4.20;99.90;;;4.32;76.91;99517.03;4978791;28;20022;-84
2020/12/27 01:39:06;;;;;;;1.58;1.13;;;4.20;99.90;;;4.35;76.97;99497.81;4976941;28;20478;-84
2020/12/27 01:41:32;;;;;;;2.28;1.08;;;4.20;99.90;;;4.40;76.83;99492.03;4960833;28;20050;-85
2020/12/27 01:44:11;;;;;;;1.80;1.17;;;4.10;99.90;;;4.44;76.77;99470.03;4976277;28;20027;-87
2020/12/27 01:46:47;;;;;;;3.75;1.02;;;4.10;99.90;;;4.32;77.22;99436.88;4978950;28;20078;-85
2020/12/27 01:49:14;;;;;;;2.30;1.20;;;4.10;99.90;;;4.30;77.06;99420.66;4978333;28;20061;-86
2020/12/27 01:51:40;;;;;;;1.98;0.98;;;4.10;99.90;;;4.20;76.92;99427.44;4978118;28;20184;-85
2020/12/27 01:54:07;;;;;;;1.55;0.90;;;4.00;99.90;;;4.27;76.89;99421.31;4977772;28;20026;-84
2020/12/27 01:56:44;;;;;;;1.08;0.98;;;4.10;99.90;;;4.40;76.49;99425.69;4977673;28;20102;-86
2020/12/27 01:59:22;;;;;;;1.45;1.00;;;4.10;99.90;;;4.32;76.89;99410.03;4976592;28;20037;-85
2020/12/27 02:01:48;;;;;;;1.08;0.98;;;4.10;99.90;;;4.33;76.63;99402.56;4977391;28;20039;-86
2020/12/27 02:04:14;;;;;;;1.23;0.93;;;4.10;99.90;;;4.42;76.09;99404.06;4977122;28;20130;-85
2020/12/27 02:06:43;;;;;;;2.83;0.90;;;4.20;99.90;;;4.40;75.91;99381.47;4977629;28;20058;-85
2020/12/27 02:09:12;;;;;;;1.88;0.85;;;4.20;99.90;;;4.35;76.20;99378.13;4959876;28;20033;-85
2020/12/27 02:11:38;;;;;;;1.40;0.63;;;4.10;99.90;;;4.38;76.43;99364.44;4960024;28;20038;-85
2020/12/27 02:14:04;;;;;;;1.27;0.93;;;4.10;99.90;;;4.37;76.05;99368.34;4976221;28;20121;-85
2020/12/27 02:16:31;;;;;;;1.00;0.80;;;4.10;99.90;;;4.46;76.02;99369.03;4978199;28;20101;-83
2020/12/27 02:19:03;;;;;;;1.35;1.23;;;4.10;99.90;;;4.36;76.21;99333.56;4976680;28;20022;-84
2020/12/27 02:21:30;;;;;;;1.42;0.90;;;4.20;99.90;;;4.47;75.70;99322.81;4961445;28;20035;-85
2020/12/27 02:24:00;;;;;;;0.68;0.68;;;4.20;99.90;;;4.45;75.58;99305.78;4976921;28;20236;-85
2020/12/27 02:26:28;;;;;;;1.48;1.00;;;4.20;99.90;;;4.40;75.75;99308.81;4960968;28;20042;-85
2020/12/27 02:28:56;;;;;;;2.72;0.80;;;4.20;99.90;;;4.38;76.00;99281.50;4978164;28;20117;-86
2020/12/27 02:31:28;;;;;;;2.35;0.90;;;4.10;99.90;;;4.44;75.82;99290.34;4976485;28;20035;-86
2020/12/27 02:33:57;;;;;;;1.42;0.90;;;4.20;99.90;;;4.36;76.06;99280.25;4977392;28;20023;-87
2020/12/27 02:36:23;;;;;;;1.88;0.93;;;4.20;99.90;;;4.35;76.27;99279.44;4978392;28;20508;-86
2020/12/27 02:38:50;;;;;;;0.98;0.70;;;4.20;99.90;;;4.32;75.92;99262.75;4977645;28;20121;-86
2020/12/27 02:41:19;;;;;;;2.42;0.77;;;4.20;99.90;;;4.45;75.30;99258.78;4978194;28;20027;-87
2020/12/27 02:43:46;;;;;;;0.75;0.60;;;4.20;99.90;;;4.35;76.06;99276.66;4961102;28;20031;-84
2020/12/27 02:46:27;;;;;;;1.00;0.85;;;4.10;99.90;;;4.35;75.31;99262.03;4977710;28;20038;-86
2020/12/27 02:48:54;;;;;;;2.53;0.80;;;4.10;99.90;;;4.46;75.25;99255.69;4977267;28;20048;-86
2020/12/27 02:51:24;;;;;;;0.77;0.60;;;4.20;99.90;;;4.55;74.21;99250.81;4960891;28;20114;-85
2020/12/27 02:53:51;;;;;;;0.75;0.60;;;4.20;99.90;;;4.50;74.45;99251.03;4960802;28;20211;-84
2020/12/27 02:56:22;;;;;;;1.80;0.75;;;4.30;99.90;;;4.63;73.67;99243.50;4976531;28;20081;-83
2020/12/27 02:58:49;;;;;;;1.10;0.70;;;4.30;99.90;;;4.52;74.31;99218.34;4976926;28;20038;-87
2020/12/27 03:01:16;;;;;;;1.40;0.77;;;4.30;99.90;;;4.50;74.67;99215.09;4977558;28;20031;-85
2020/12/27 03:03:42;;;;;;;0.75;0.60;;;4.30;99.90;;;4.49;74.41;99201.66;4960132;28;20101;-83
2020/12/27 03:06:09;;;;;;;1.77;0.90;;;4.20;99.90;;;4.53;74.43;99180.41;4960403;28;20031;-87
2020/12/27 03:08:36;;;;;;;2.08;0.75;;;4.20;99.90;;;4.42;74.98;99180.13;4960804;28;20467;-86
2020/12/27 03:11:03;;;;;;;1.48;0.70;;;4.20;99.90;;;4.48;74.39;99164.91;4976167;28;20042;-86
2020/12/27 03:13:31;;;;;;;0.90;0.70;;;4.20;99.90;;;4.41;75.07;99142.59;4976334;28;20026;-83
2020/12/27 03:15:57;;;;;;;0.82;0.70;;;4.20;99.90;;;4.38;74.48;99135.00;4977678;28;20081;-86
2020/12/27 03:18:23;;;;;;;0.88;0.65;;;4.20;99.90;;;4.41;74.83;99122.44;4975771;28;20099;-85
2020/12/27 03:20:50;;;;;;;1.70;0.82;;;4.20;99.90;;;4.32;75.11;99096.91;4976159;28;20084;-86
2020/12/27 03:23:16;;;;;;;0.88;0.68;;;4.20;99.90;;;4.36;74.85;99095.06;4976444;28;20236;-84
2020/12/27 03:25:43;;;;;;;1.73;0.70;;;4.10;99.90;;;4.30;75.28;99074.38;4977089;28;20071;-85
2020/12/27 03:28:10;;;;;;;1.13;0.90;;;4.10;99.90;;;4.24;75.53;99085.66;4976725;28;20125;-84
2020/12/27 03:30:37;;;;;;;3.53;0.70;;;4.10;99.90;;;4.24;75.19;99073.81;4975783;28;20027;-84
2020/12/27 03:33:04;;;;;;;1.33;1.08;;;4.10;99.90;;;4.36;74.47;99054.41;4978025;28;20089;-83
2020/12/27 03:35:30;;;;;;;2.47;0.93;;;4.10;99.90;;;4.43;74.55;99051.03;4976145;28;20038;-85
2020/12/27 03:37:56;;;;;;;0.73;0.73;;;4.10;99.90;;;4.45;74.42;99041.22;4959957;28;20070;-85
2020/12/27 03:40:22;;;;;;;1.80;0.60;;;4.10;99.90;;;4.34;75.22;99033.78;4961100;28;20085;-87
2020/12/27 03:42:52;;;;;;;1.77;0.80;;;4.10;99.90;;;4.32;74.98;99038.88;4980565;28;20117;-84
2020/12/27 03:45:18;;;;;;;0.73;0.65;;;4.10;99.90;;;4.46;74.67;99022.66;4981487;28;20038;-86
2020/12/27 03:47:44;;;;;;;1.38;0.90;;;4.10;99.90;;;4.46;74.56;99017.13;4972176;28;20046;-83
2020/12/27 03:50:10;;;;;;;1.08;0.77;;;4.20;99.90;;;4.42;74.68;99016.25;4976988;28;20039;-83
2020/12/27 03:52:35;;;;;;;6.35;1.38;;;4.10;99.90;;;4.38;75.11;98985.75;5000254;28;20099;-85
2020/12/27 03:55:01;;;;;;;1.30;0.70;;;4.10;99.90;;;4.49;74.55;98986.81;4979374;28;20068;-86
2020/12/27 03:57:27;;;;;;;1.27;0.88;;;4.20;99.90;;;4.47;74.50;98968.97;4968174;28;20030;-86
2020/12/27 03:59:53;;;;;;;2.05;1.08;;;4.20;99.90;;;4.36;74.99;98967.91;4983510;28;20039;-85
2020/12/27 04:02:19;;;;;;;2.55;0.70;;;4.20;99.90;;;4.49;74.75;98956.41;4983123;28;20054;-88
2020/12/27 04:04:45;;;;;;;1.10;0.65;;;4.20;99.90;;;4.50;75.19;98951.66;4982329;28;20039;-88
2020/12/27 04:07:11;;;;;;;0.75;0.55;;;4.20;99.90;;;4.36;75.35;98945.81;4972538;28;20034;-84
2020/12/27 04:09:37;;;;;;;0.50;0.50;;;4.20;99.90;;;4.57;74.60;98936.06;4988194;28;20501;-86
2020/12/27 04:12:03;;;;;;;1.33;0.85;;;4.20;99.90;;;4.60;74.46;98923.47;4980659;28;20382;-86
2020/12/27 04:14:29;;;;;;;2.10;0.98;;;4.20;99.90;;;4.37;75.53;98922.53;4965423;28;20124;-84
2020/12/27 04:16:54;;;;;;;1.10;0.70;;;4.20;99.90;;;4.54;74.56;98925.72;4980833;28;20062;-85
2020/12/27 04:19:20;;;;;;;0.90;0.70;;;4.30;99.90;;;4.57;74.45;98902.06;4981470;28;20031;-85
2020/12/27 04:21:47;;;;;;;1.63;0.68;;;4.40;99.90;;;4.66;74.46;98914.53;4981008;28;20054;-86
2020/12/27 04:24:14;;;;;;;0.55;0.55;;;4.40;99.90;;;4.70;74.14;98887.75;4981571;28;20035;-86
2020/12/27 04:26:40;;;;;;;1.45;0.60;;;4.40;99.90;;;4.58;74.41;98887.09;4982159;28;20041;-83
2020/12/27 04:29:07;;;;;;;1.13;0.68;;;4.40;99.90;;;4.61;74.38;98903.78;4981708;28;20054;-84
2020/12/27 04:31:33;;;;;;;3.00;0.65;;;4.50;99.90;;;4.59;74.55;98874.88;4964955;28;20078;-85
2020/12/27 04:33:59;;;;;;;1.50;0.82;;;4.40;99.90;;;4.60;74.55;98863.44;4964504;28;20055;-86
2020/12/27 04:36:28;;;;;;;0.77;0.70;;;4.50;99.90;;;4.67;74.30;98868.34;4964606;28;20037;-83
2020/12/27 04:38:54;;;;;;;0.93;0.68;;;4.40;99.90;;;4.67;74.32;98837.91;4980617;28;20034;-84
2020/12/27 04:41:20;;;;;;;2.20;0.60;;;4.30;99.90;;;4.68;73.69;98856.91;4980113;28;20038;-83
2020/12/27 04:43:48;;;;;;;1.13;0.70;;;4.40;99.90;;;4.60;74.42;98849.63;4982196;28;20045;-86
2020/12/27 04:46:16;;;;;;;2.60;0.75;;;4.40;99.90;;;4.73;73.44;98820.69;4964822;28;20136;-86
2020/12/27 04:48:45;;;;;;;2.28;0.60;;;4.40;99.90;;;4.74;73.43;98813.19;4964876;28;20050;-85
2020/12/27 04:51:13;;;;;;;1.13;0.43;;;4.50;99.90;;;4.71;73.59;98817.47;4965047;28;20050;-85
2020/12/27 04:53:40;;;;;;;0.73;0.47;;;4.50;99.90;;;4.71;73.78;98800.09;4965198;28;20054;-86
2020/12/27 04:56:08;;;;;;;1.10;0.60;;;4.40;99.90;;;4.60;73.88;98777.72;4965718;28;20034;-84
2020/12/27 04:58:34;;;;;;;1.30;0.60;;;4.40;99.90;;;4.71;73.79;98778.75;4982712;28;20066;-86
2020/12/27 05:01:02;;;;;;;1.67;0.57;;;4.40;99.90;;;4.65;74.36;98779.44;4965470;28;20034;-86
2020/12/27 05:03:28;;;;;;;2.45;0.60;;;4.40;99.90;;;4.66;73.62;98776.28;4964524;28;20081;-85
2020/12/27 05:05:56;;;;;;;3.92;0.57;;;4.40;99.90;;;4.62;73.71;98753.28;4980670;28;20044;-84
2020/12/27 05:08:23;;;;;;;0.73;0.50;;;4.50;99.90;;;4.66;73.76;98758.88;4980205;28;20042;-84
2020/12/27 05:10:48;;;;;;;1.35;0.70;;;4.40;99.90;;;4.60;74.13;98738.22;4981555;28;20407;-85
2020/12/27 05:13:17;;;;;;;0.63;0.57;;;4.50;99.90;;;4.64;73.95;98747.41;4980357;28;20027;-84
2020/12/27 05:15:44;;;;;;;0.90;0.47;;;4.50;99.90;;;4.68;73.47;98720.63;4964857;28;20216;-84
2020/12/27 05:18:12;;;;;;;0.88;0.60;;;4.50;99.90;;;4.63;74.17;98715.38;4979584;28;20033;-85
2020/12/27 05:20:46;;;;;;;0.82;0.60;;;4.40;99.90;;;4.62;73.75;98686.16;4981580;28;20039;-85
2020/12/27 05:23:11;;;;;;;0.82;0.45;;;4.40;99.90;;;4.58;74.49;98704.63;4979817;28;20034;-84
2020/12/27 05:25:39;;;;;;;0.38;0.38;;;4.40;99.90;;;4.69;74.24;98711.94;4963213;28;20026;-85
2020/12/27 05:28:11;;;;;;;2.33;0.50;;;4.40;99.90;;;4.68;73.60;98687.44;4980503;28;20065;-84
2020/12/27 05:30:45;;;;;;;0.50;0.45;;;4.50;99.90;;;4.77;73.97;98685.25;4979024;28;20039;-85
2020/12/27 05:33:17;;;;;;;0.95;0.40;;;4.50;99.90;;;4.71;73.94;98678.41;4979229;28;20041;-86
2020/12/27 05:35:43;;;;;;;1.40;0.57;;;4.50;99.90;;;4.71;73.96;98682.00;4979941;28;20088;-87
2020/12/27 05:38:11;;;;;;;1.17;0.70;;;4.50;99.90;;;4.66;74.14;98668.44;4980071;28;20081;-86
2020/12/27 05:40:41;;;;;;;1.13;0.63;;;4.50;99.90;;;4.70;74.61;98655.50;4978456;28;20030;-85
2020/12/27 05:43:15;;;;;;;1.65;0.70;;;4.50;99.90;;;4.82;73.67;98681.38;4978756;28;20042;-84
2020/12/27 05:45:44;;;;;;;1.23;0.60;;;4.50;99.90;;;4.70;74.49;98668.50;4978471;28;20035;-87
2020/12/27 05:48:10;;;;;;;1.30;0.60;;;4.50;99.90;;;4.84;73.96;98660.50;4979070;28;20121;-86
2020/12/27 05:50:41;;;;;;;1.20;0.77;;;4.50;99.90;;;4.89;73.70;98651.06;4979036;28;20069;-85
2020/12/27 05:53:30;;;;;;;1.05;0.63;;;4.60;99.90;;;4.80;73.67;98618.13;4980316;28;20027;-87
2020/12/27 05:56:00;;;;;;;1.33;0.47;;;4.60;99.90;;;4.93;73.65;98635.34;4963049;28;20121;-88
2020/12/27 05:58:27;;;;;;;1.13;0.77;;;4.60;99.90;;;4.89;73.81;98624.22;4979883;28;20039;-85
2020/12/27 06:00:58;;;;;;;1.13;0.70;;;4.50;99.90;;;4.70;74.15;98629.81;4962896;28;20475;-86
2020/12/27 06:03:30;;;;;;;1.63;0.70;;;4.50;99.90;;;4.83;73.80;98617.41;4980243;28;20735;-90
2020/12/27 06:06:08;;;;;;;0.80;0.50;;;4.50;99.90;;;4.83;73.58;98605.53;4978172;28;20042;-87
2020/12/27 06:09:08;;;;;;;0.70;0.60;;;4.60;99.90;;;4.88;74.09;98608.00;4976664;28;20035;-86
2020/12/27 06:11:52;;;;;;;1.05;0.60;;;4.60;99.90;;;4.86;73.85;98585.44;4966658;28;20030;-83
2020/12/27 06:14:38;;;;;;;1.00;0.75;;;4.60;99.90;;;4.88;73.41;98589.41;4990884;28;20018;-84
2020/12/27 06:17:16;;;;;;;1.38;0.70;;;4.60;99.90;;;4.83;74.27;98586.97;4962628;28;20034;-88
2020/12/27 06:20:07;;;;;;;1.60;0.90;;;4.60;99.90;;;4.93;73.79;98569.75;4962763;28;20058;-89
2020/12/27 06:22:33;;;;;;;1.35;0.60;;;4.60;99.90;;;4.82;74.25;98556.94;4978903;28;20403;-86
2020/12/27 06:25:01;;;;;;;1.85;0.75;;;4.60;99.90;;;4.96;74.20;98555.19;4980514;28;20037;-88
2020/12/27 06:27:30;;;;;;;1.83;0.70;;;4.60;99.90;;;4.83;74.11;98539.97;4980397;28;20037;-88
2020/12/27 06:30:10;;;;;;;1.52;0.60;;;4.60;99.90;;;4.90;73.74;98550.34;4969644;28;20042;-89
2020/12/27 06:32:54;;;;;;;0.52;0.52;;;4.70;99.90;;;4.98;74.06;98527.94;4997245;28;20050;-84
2020/12/27 06:35:34;;;;;;;1.85;0.52;;;4.70;99.90;;;4.97;73.81;98515.28;4997034;28;20039;-85
2020/12/27 06:38:14;;;;;;;1.05;0.88;;;4.70;99.90;;;4.90;74.18;98495.81;4997254;28;20018;-84
2020/12/27 06:40:40;;;;;;;1.35;0.68;;;4.70;99.90;;;5.01;74.04;98494.00;4981060;28;20050;-86
2020/12/27 06:43:22;;;;;;;1.00;0.63;;;4.80;99.90;;;5.03;73.96;98491.66;4996285;28;20035;-85
2020/12/27 06:45:51;;;;;;;0.90;0.60;;;4.70;99.90;;;5.05;73.85;98469.94;4970704;28;20050;-88
2020/12/27 06:48:37;;;;;;;1.73;0.52;;;4.70;99.90;;;5.14;73.52;98453.88;4963226;28;20057;-89
2020/12/27 06:51:03;;;;;;;;;;;4.80;99.90;;;5.14;73.09;98442.00;4993370;28;20043;-87
2020/12/27 06:53:45;;;;;;;0.73;0.50;;;4.80;99.90;;;5.16;73.23;98439.66;4978324;28;20313;-87
2020/12/27 06:56:14;;;;;;;1.20;0.50;;;4.80;99.90;;;5.18;73.15;98456.69;4977949;28;20037;-88
2020/12/27 06:58:59;;;;;;;1.95;0.60;;;4.80;99.90;;;5.07;73.42;98439.16;4979341;28;20039;-88
2020/12/27 07:01:25;;;;;;;0.60;0.60;;;4.80;99.90;;;5.10;73.34;98419.03;4961612;28;20050;-88
2020/12/27 07:04:18;;;;;;;0.88;0.50;;;4.90;99.90;;;5.08;73.33;98426.91;4977280;28;20065;-87
2020/12/27 07:06:49;;;;;;;1.17;0.70;;;4.90;99.90;;;5.12;73.66;98417.47;4979931;28;20086;-87
2020/12/27 07:09:26;;;;;;;1.40;0.50;;;4.90;99.90;;;5.16;73.53;98401.72;4965024;28;20023;-88
2020/12/27 07:12:09;;;;;;;2.55;0.82;;;4.90;99.90;;;5.18;73.40;98415.97;4978812;28;20066;-87
2020/12/27 07:14:43;;;;;;;1.05;0.50;;;4.90;99.90;;;5.21;72.84;98386.75;4961087;28;20049;-86
2020/12/27 07:17:11;;;;;;;1.88;0.40;;;4.90;99.90;;;5.22;73.20;98402.19;4965093;28;20031;-87
2020/12/27 07:19:40;;;;;;;1.05;0.50;;;4.90;99.90;;;5.21;73.50;98382.00;4964982;28;20026;-87
2020/12/27 07:22:11;;;;;;;1.15;0.68;;;4.90;99.90;;;5.21;73.25;98370.94;4982265;28;20033;-89
2020/12/27 07:24:41;;;;;;;0.95;0.45;;;4.90;99.90;;;5.42;72.43;98387.00;4967536;28;20027;-88
2020/12/27 07:27:11;;;;;;;2.45;0.40;;;5.00;99.90;;;5.44;72.18;98345.91;4980236;28;20054;-86
2020/12/27 07:29:39;;;;;;;1.63;0.30;;;5.00;99.90;;;5.24;72.88;98341.72;4979863;28;20085;-87
2020/12/27 07:32:09;;;;;;;0.73;0.40;;;5.00;99.90;;;5.38;72.48;98328.03;4964565;28;20059;-87
2020/12/27 07:34:38;;;;;;;0.63;0.43;;;5.00;99.90;;;5.34;72.69;98324.44;4981192;28;20031;-88
2020/12/27 07:37:07;;;;;;;1.10;0.40;;;5.10;99.90;;;5.35;72.46;98342.66;4980784;28;20081;-89
2020/12/27 07:39:57;;;;;;;0.88;0.47;;;5.10;99.90;;;5.32;72.72;98329.56;4965005;28;20368;-85
2020/12/27 07:42:37;;;;;;;2.20;0.50;;;5.00;99.90;;;5.28;72.96;98312.91;4978340;28;20430;-87
2020/12/27 07:45:21;;;;;;;3.47;0.50;;;5.00;99.90;;;5.41;72.95;98315.41;4979310;28;20046;-87
2020/12/27 07:47:47;;;;;;;2.17;0.40;;;5.00;99.90;;;5.41;72.98;98307.09;4978447;28;20031;-86
2020/12/27 07:50:16;;;;;;;0.47;0.40;;;5.00;99.90;;;5.26;73.06;98320.81;4980365;28;20171;-89
2020/12/27 07:53:00;;;;;;;0.45;0.40;;;5.00;99.90;;;5.35;73.19;98312.19;4963930;28;20082;-88
2020/12/27 07:55:37;;;;;;;1.10;0.40;;;5.00;99.90;;;5.33;72.71;98282.13;4979597;28;20248;-89
2020/12/27 07:58:07;;;;;;;0.90;0.40;;;5.10;99.90;;;5.29;72.78;98294.34;4964173;28;20037;-85
2020/12/27 08:00:37;;;;;;;0.47;0.30;;;5.10;99.90;;;5.41;72.11;98279.44;4962828;28;20039;-85
2020/12/27 08:03:06;;;;;;;1.13;0.40;;;5.10;99.90;;;5.40;72.89;98284.16;4983829;28;20034;-84
2020/12/27 08:05:34;;;;;;;1.30;0.30;;;5.10;99.90;;;5.26;72.97;98268.25;4978828;28;20051;-83
2020/12/27 08:08:07;;;;;;;0.20;0.20;;;5.00;99.90;;;5.28;73.29;98273.38;4980976;28;20034;-88
2020/12/27 08:10:34;;;;;;;0.52;0.32;;;5.00;99.90;;;5.30;73.06;98255.22;4981448;28;20066;-89
2020/12/27 08:13:06;;;;;;;0.22;0.22;;;5.10;99.90;;;5.31;72.64;98220.03;4981254;28;20072;-90
2020/12/27 08:15:41;;;;;;;0.40;0.30;;;5.00;99.90;;;5.32;72.80;98225.19;4979381;28;20114;-88
2020/12/27 08:18:11;;;;;;;0.60;0.30;;;5.10;99.90;;;5.36;72.56;98225.22;4962264;28;20158;-87
2020/12/27 08:20:57;;;;;;;0.60;0.30;;;5.10;99.90;;;5.33;72.44;98221.22;4964219;28;20043;-88
2020/12/27 08:23:23;;;;;;;1.33;0.30;;;5.10;99.90;;;5.43;72.25;98178.22;4966795;28;20415;-89
2020/12/27 08:26:00;;;;;;;0.80;0.30;;;5.20;99.90;;;5.44;72.10;98193.66;4964661;28;20045;-88
2020/12/27 08:28:27;;;;;;;0.70;0.40;;;5.20;99.90;;;5.48;72.02;98193.69;4980025;28;20042;-86
2020/12/27 08:30:53;;;;;;;0.30;0.20;;;5.20;99.90;;;5.43;72.29;98177.41;4981791;28;20042;-89
2020/12/27 08:33:20;;;;;;;0.85;0.22;;;5.30;99.90;;;5.53;72.01;98183.03;4981514;28;20030;-88
2020/12/27 08:35:51;;;;;;;0.28;0.28;;;5.20;99.90;;;5.46;72.71;98182.97;4984271;28;20038;-83
2020/12/27 08:38:54;;;;;;;1.92;0.73;;;5.20;99.90;;;5.52;72.11;98164.06;4979292;28;20027;-85
2020/12/27 08:41:27;;;;;;;1.10;0.20;;;5.30;99.90;;;5.54;71.58;98156.16;4982882;28;20038;-85
2020/12/27 08:44:52;;;;;;;0.55;0.30;;;5.30;99.90;;;5.61;71.79;98142.38;4962172;28;20031;-86
2020/12/27 08:47:39;;;;;;;0.55;0.32;;;5.30;99.90;;;5.57;71.36;98122.97;4954990;28;20049;-86
2020/12/27 08:50:16;;;;;;;0.80;0.40;;;5.30;99.90;;;5.66;71.39;98128.94;4963722;28;20035;-85
2020/12/27 08:52:59;;;;;;;0.75;0.20;;;5.40;99.90;;;5.74;70.92;98129.78;4981577;28;20072;-88
2020/12/27 08:55:30;;;;;;;0.43;0.30;;;5.50;99.90;;;5.84;70.70;98117.97;4980320;28;20132;-87
2020/12/27 08:58:00;;;;;;;0.68;0.40;;;5.60;99.90;;;5.84;70.84;98118.75;4961183;28;20085;-88
2020/12/27 09:00:34;;;;;;;0.52;0.38;;;5.60;99.90;;;5.85;70.82;98094.63;4978216;28;20475;-87
2020/12/27 09:03:04;;;;;;;0.20;0.20;;;5.60;99.90;;;5.83;70.73;98095.03;4963650;28;20046;-89
2020/12/27 09:05:35;;;;;;;0.57;0.30;;;5.60;99.90;;;5.93;70.34;98095.50;4981905;28;20034;-88
2020/12/27 09:08:16;;;;;;;0.43;0.20;;;5.60;99.90;;;5.79;70.64;98088.66;4967043;28;20030;-86
2020/12/27 09:10:42;;;;;;;0.43;0.30;;;5.60;99.90;;;5.86;70.42;98071.31;4983554;28;20126;-87
2020/12/27 09:13:17;;;;;;;0.30;0.20;;;5.60;99.90;;;5.85;70.38;98061.38;4980127;28;20031;-85
2020/12/27 09:15:49;;;;;;;0.82;0.40;;;5.60;99.90;;;5.77;70.83;98070.88;4978622;28;20026;-87
2020/12/27 09:18:37;;;;;;;0.32;0.30;;;5.50;99.90;;;5.80;70.59;98048.72;4964680;28;20027;-85
2020/12/27 09:21:07;;;;;;;2.25;0.65;;;5.50;99.90;;;5.87;70.62;98036.13;4962133;28;20085;-85
2020/12/27 09:23:34;;;;;;;1.63;0.50;;;5.50;99.90;;;5.82;70.94;98026.97;4962404;28;20049;-86
2020/12/27 09:26:15;;;;;;;0.22;0.20;;;5.60;99.90;;;5.77;71.14;98038.44;4979516;28;20086;-85
2020/12/27 09:28:45;;;;;;;0.40;0.30;;;5.50;99.90;;;5.89;70.43;98031.75;4984793;28;20228;-87
2020/12/27 09:31:18;;;;;;;0.32;0.30;;;5.50;99.90;;;5.88;70.56;98021.84;4966053;28;20041;-88
2020/12/27 09:33:59;;;;;;;1.98;0.32;;;5.60;99.90;;;5.79;71.40;98024.16;4982553;28;20045;-81
2020/12/27 09:36:26;;;;;;;0.60;0.25;;;5.60;99.90;;;5.83;70.79;97997.28;4980191;28;20023;-85
2020/12/27 09:38:52;;;;;;;0.50;0.38;;;5.60;99.90;;;5.96;70.40;98012.41;4981053;28;20031;-86
2020/12/27 09:41:20;;;;;;;0.75;0.35;;;5.60;99.90;;;5.86;70.38;98001.28;4979319;28;20030;-86
2020/12/27 09:43:58;;;;;;;0.80;0.22;;;5.60;99.90;;;5.95;70.11;98005.28;4968596;28;20027;-84
2020/12/27 09:46:51;;;;;;;0.47;0.30;;;5.60;99.90;;;5.93;70.51;98001.31;4968269;28;20030;-85
2020/12/27 09:49:31;;;;;;;0.65;0.50;;;5.60;99.90;;;5.92;70.28;97994.19;4982969;28;20086;-86
2020/12/27 09:52:13;;;;;;;0.30;0.30;;;5.60;99.90;;;6.00;70.23;97984.72;4984145;28;20037;-84
2020/12/27 09:54:44;;;;;;;0.30;0.20;;;5.60;99.90;;;5.85;70.43;97992.13;4980489;28;20027;-84
2020/12/27 09:57:16;;;;;;;3.20;0.30;;;5.60;99.90;;;6.07;69.59;97979.97;4979426;28;20162;-84
2020/12/27 09:59:50;;;;;;;0.45;0.32;;;5.70;99.90;;;5.97;69.86;97978.00;4978893;28;20062;-85
2020/12/27 10:02:18;;;;;;;0.20;0.20;;;5.70;99.90;;;5.92;69.92;97947.09;4979468;28;20034;-83
2020/12/27 10:04:45;;;;;;;0.43;0.20;;;5.70;99.90;;;5.95;69.54;97946.31;4963018;28;20094;-85
2020/12/27 10:07:11;;;;;;;0.30;0.30;;;5.70;99.90;;;5.95;69.81;97921.38;4964641;28;20399;-83
2020/12/27 10:09:38;;;;;;;0.40;0.20;;;5.70;99.90;;;5.99;69.82;97922.97;4979300;28;20038;-83
2020/12/27 10:12:05;;;;;;;0.20;0.20;;;5.70;99.90;;;5.95;69.48;97905.53;4980927;28;20031;-84
2020/12/27 10:14:34;;;;;;;0.40;0.20;;;5.80;99.90;;;6.03;69.79;97909.13;4979336;28;20027;-83
2020/12/27 10:17:02;;;;;;;0.47;0.28;;;5.80;99.90;;;6.02;70.08;97918.63;4963104;28;20056;-83
2020/12/27 10:19:53;;;;;;;0.40;0.20;;;5.80;99.90;;;5.96;70.59;97870.31;4978858;28;20027;-86
2020/12/27 10:22:19;;;;;;;0.25;0.20;;;5.70;99.90;;;6.05;70.10;97865.19;4962462;28;20034;-86
2020/12/27 10:24:48;;;;;;;0.40;0.30;;;5.70;99.90;;;5.86;71.59;97860.81;4979415;28;20042;-85
2020/12/27 10:27:14;;;;;;;1.45;0.20;;;5.70;99.90;;;5.95;71.68;97852.13;4976479;28;20026;-86
2020/12/27 10:29:52;;;;;;;0.10;0.10;;;5.60;99.90;;;5.94;71.81;97845.78;4978695;28;20478;-87
2020/12/27 10:32:18;;;;;;;0.73;0.30;;;5.60;99.90;;;5.98;71.86;97831.94;4978367;28;20062;-85
2020/12/27 10:34:48;;;;;;;0.50;0.38;;;5.80;99.90;;;5.94;72.36;97834.69;4979476;28;20038;-86
2020/12/27 10:37:13;;;;;;;0.30;0.30;;;5.70;99.90;;;5.96;72.16;97796.34;4977678;28;20498;-86
2020/12/27 10:39:42;;;;;;;1.77;0.30;;;5.70;99.90;;;6.04;72.88;97808.19;4978833;28;20054;-85
2020/12/27 10:42:09;;;;;;;0.32;0.30;;;5.80;99.90;;;6.01;73.07;97808.97;4963223;28;20035;-86
2020/12/27 10:44:35;;;;;;;0.77;0.50;;;5.70;99.90;;;6.05;72.41;97793.94;4962218;28;20030;-87
2020/12/27 10:47:01;;;;;;;0.82;0.40;;;5.70;99.90;;;5.99;73.39;97762.31;4979932;28;20043;-86